sensor_id;sensor_type;location;lat;lon;timestamp;temperature;humidity
23671;DHT22;12012;51.998;7.614;2024-02-16T00:01:06;10.90;99.90
23671;DHT22;12012;51.998;7.614;2024-02-16T00:03:32;10.80;99.90
23671;DHT22;12012;51.998;7.614;2024-02-16T00:05:58;10.90;99.90
23671;DHT22;12012;51.998;7.614;2024-02-16T00:08:23;10.90;99.90
23671;DHT22;12012;51.998;7.614;2024-02-16T00:10:49;10.90;99.90
23671;DHT22;12012;51.998;7.614;2024-02-16T00:13:14;10.90;99.90
23671;DHT22;12012;51.998;7.614;2024-02-16T00:15:40;10.90;99.90
23671;DHT22;12012;51.998;7.614;2024-02-16T00:18:06;10.90;99.90
23671;DHT22;12012;51.998;7.614;2024-02-16T00:20:32;10.90;99.90
23671;DHT22;12012;51.998;7.614;2024-02-16T00:22:58;10.90;99.90
23671;DHT22;12012;51.998;7.614;2024-02-16T00:25:25;10.90;99.90
23671;DHT22;12012;51.998;7.614;2024-02-16T00:27:51;10.90;99.90
23671;DHT22;12012;51.998;7.614;2024-02-16T00:30:18;10.90;99.90
23671;DHT22;12012;51.998;7.614;2024-02-16T00:32:44;10.90;99.90
23671;DHT22;12012;51.998;7.614;2024-02-16T00:35:11;10.90;99.90
23671;DHT22;12012;51.998;7.614;2024-02-16T00:37:37;10.80;99.90
23671;DHT22;12012;51.998;7.614;2024-02-16T00:40:04;10.80;99.90
23671;DHT22;12012;51.998;7.614;2024-02-16T00:42:30;10.70;99.90
23671;DHT22;12012;51.998;7.614;2024-02-16T00:44:57;10.70;99.90
23671;DHT22;12012;51.998;7.614;2024-02-16T00:47:22;10.70;99.90
23671;DHT22;12012;51.998;7.614;2024-02-16T00:49:49;10.60;99.90
23671;DHT22;12012;51.998;7.614;2024-02-16T00:52:14;10.60;99.90
23671;DHT22;12012;51.998;7.614;2024-02-16T00:54:40;10.50;99.90
23671;DHT22;12012;51.998;7.614;2024-02-16T00:57:05;10.50;99.90
23671;DHT22;12012;51.998;7.614;2024-02-16T00:59:31;10.50;99.90
23671;DHT22;12012;51.998;7.614;2024-02-16T01:01:57;10.50;99.90
23671;DHT22;12012;51.998;7.614;2024-02-16T01:04:23;10.50;99.90
23671;DHT22;12012;51.998;7.614;2024-02-16T01:06:48;10.50;99.90
23671;DHT22;12012;51.998;7.614;2024-02-16T01:09:14;10.50;99.90
23671;DHT22;12012;51.998;7.614;2024-02-16T01:11:41;10.50;99.90
23671;DHT22;12012;51.998;7.614;2024-02-16T01:14:07;10.50;99.90
23671;DHT22;12012;51.998;7.614;2024-02-16T01:16:33;10.50;99.90
23671;DHT22;12012;51.998;7.614;2024-02-16T01:18:58;10.50;99.90
23671;DHT22;12012;51.998;7.614;2024-02-16T01:21:24;10.60;99.90
23671;DHT22;12012;51.998;7.614;2024-02-16T01:23:49;10.60;99.90
23671;DHT22;12012;51.998;7.614;2024-02-16T01:26:15;10.60;99.90
23671;DHT22;12012;51.998;7.614;2024-02-16T01:28:40;10.70;99.90
23671;DHT22;12012;51.998;7.614;2024-02-16T01:31:06;10.70;99.90
23671;DHT22;12012;51.998;7.614;2024-02-16T01:33:31;10.70;99.90
23671;DHT22;12012;51.998;7.614;2024-02-16T01:36:00;10.70;99.90
23671;DHT22;12012;51.998;7.614;2024-02-16T01:38:25;10.70;99.90
23671;DHT22;12012;51.998;7.614;2024-02-16T01:40:51;10.70;99.90
23671;DHT22;12012;51.998;7.614;2024-02-16T01:43:22;10.70;99.90
23671;DHT22;12012;51.998;7.614;2024-02-16T01:45:48;10.70;99.90
23671;DHT22;12012;51.998;7.614;2024-02-16T01:48:17;10.70;99.90
23671;DHT22;12012;51.998;7.614;2024-02-16T01:50:43;10.70;99.90
23671;DHT22;12012;51.998;7.614;2024-02-16T01:53:10;10.70;99.90
23671;DHT22;12012;51.998;7.614;2024-02-16T01:55:36;10.70;99.90
23671;DHT22;12012;51.998;7.614;2024-02-16T01:58:02;10.70;99.90
23671;DHT22;12012;51.998;7.614;2024-02-16T02:00:28;10.80;99.90
23671;DHT22;12012;51.998;7.614;2024-02-16T02:02:54;10.80;99.90
23671;DHT22;12012;51.998;7.614;2024-02-16T02:05:19;10.80;99.90
23671;DHT22;12012;51.998;7.614;2024-02-16T02:07:45;10.90;99.90
23671;DHT22;12012;51.998;7.614;2024-02-16T02:10:11;10.80;99.70
23671;DHT22;12012;51.998;7.614;2024-02-16T02:12:40;10.90;98.60
23671;DHT22;12012;51.998;7.614;2024-02-16T02:15:06;10.90;99.90
23671;DHT22;12012;51.998;7.614;2024-02-16T02:17:32;10.90;93.90
23671;DHT22;12012;51.998;7.614;2024-02-16T02:19:57;11.00;90.20
23671;DHT22;12012;51.998;7.614;2024-02-16T02:22:23;11.00;95.00
23671;DHT22;12012;51.998;7.614;2024-02-16T02:24:48;11.00;90.00
23671;DHT22;12012;51.998;7.614;2024-02-16T02:27:14;11.10;91.10
23671;DHT22;12012;51.998;7.614;2024-02-16T02:29:41;11.20;82.80
23671;DHT22;12012;51.998;7.614;2024-02-16T02:32:07;11.20;86.20
23671;DHT22;12012;51.998;7.614;2024-02-16T02:34:33;11.30;85.10
23671;DHT22;12012;51.998;7.614;2024-02-16T02:36:59;11.30;89.50
23671;DHT22;12012;51.998;7.614;2024-02-16T02:39:25;11.30;89.80
23671;DHT22;12012;51.998;7.614;2024-02-16T02:41:51;11.30;87.00
23671;DHT22;12012;51.998;7.614;2024-02-16T02:44:17;11.30;85.80
23671;DHT22;12012;51.998;7.614;2024-02-16T02:46:42;11.40;90.40
23671;DHT22;12012;51.998;7.614;2024-02-16T02:49:08;11.40;91.40
23671;DHT22;12012;51.998;7.614;2024-02-16T02:51:33;11.40;90.90
23671;DHT22;12012;51.998;7.614;2024-02-16T02:53:59;11.50;89.90
23671;DHT22;12012;51.998;7.614;2024-02-16T02:56:24;11.40;83.50
23671;DHT22;12012;51.998;7.614;2024-02-16T02:58:50;11.40;84.60
23671;DHT22;12012;51.998;7.614;2024-02-16T03:01:16;11.40;90.60
23671;DHT22;12012;51.998;7.614;2024-02-16T03:03:41;11.40;90.30
23671;DHT22;12012;51.998;7.614;2024-02-16T03:06:08;11.40;89.70
23671;DHT22;12012;51.998;7.614;2024-02-16T03:08:34;11.40;75.70
23671;DHT22;12012;51.998;7.614;2024-02-16T03:11:00;11.40;85.50
23671;DHT22;12012;51.998;7.614;2024-02-16T03:13:26;11.40;89.90
23671;DHT22;12012;51.998;7.614;2024-02-16T03:15:52;11.30;88.50
23671;DHT22;12012;51.998;7.614;2024-02-16T03:18:18;11.30;90.40
23671;DHT22;12012;51.998;7.614;2024-02-16T03:20:45;11.30;91.00
23671;DHT22;12012;51.998;7.614;2024-02-16T03:23:13;11.30;91.10
23671;DHT22;12012;51.998;7.614;2024-02-16T03:25:39;11.30;91.90
23671;DHT22;12012;51.998;7.614;2024-02-16T03:28:05;11.20;91.10
23671;DHT22;12012;51.998;7.614;2024-02-16T03:30:30;11.20;91.20
23671;DHT22;12012;51.998;7.614;2024-02-16T03:32:56;11.20;92.00
23671;DHT22;12012;51.998;7.614;2024-02-16T03:35:21;11.20;91.60
23671;DHT22;12012;51.998;7.614;2024-02-16T03:37:47;11.20;91.80
23671;DHT22;12012;51.998;7.614;2024-02-16T03:40:13;11.10;87.60
23671;DHT22;12012;51.998;7.614;2024-02-16T03:42:39;11.10;92.10
23671;DHT22;12012;51.998;7.614;2024-02-16T03:45:06;11.10;91.50
23671;DHT22;12012;51.998;7.614;2024-02-16T03:47:32;11.10;91.90
23671;DHT22;12012;51.998;7.614;2024-02-16T03:49:57;11.00;87.50
23671;DHT22;12012;51.998;7.614;2024-02-16T03:52:23;11.00;92.00
23671;DHT22;12012;51.998;7.614;2024-02-16T03:54:49;11.00;90.60
23671;DHT22;12012;51.998;7.614;2024-02-16T03:57:16;11.00;92.50
23671;DHT22;12012;51.998;7.614;2024-02-16T03:59:45;11.00;90.10
23671;DHT22;12012;51.998;7.614;2024-02-16T04:02:12;11.00;91.90
23671;DHT22;12012;51.998;7.614;2024-02-16T04:04:39;11.00;89.60
23671;DHT22;12012;51.998;7.614;2024-02-16T04:07:04;11.00;88.70
23671;DHT22;12012;51.998;7.614;2024-02-16T04:09:32;11.10;91.70
23671;DHT22;12012;51.998;7.614;2024-02-16T04:11:58;11.10;85.00
23671;DHT22;12012;51.998;7.614;2024-02-16T04:14:24;11.10;88.00
23671;DHT22;12012;51.998;7.614;2024-02-16T04:16:49;11.10;81.10
23671;DHT22;12012;51.998;7.614;2024-02-16T04:19:15;11.10;80.80
23671;DHT22;12012;51.998;7.614;2024-02-16T04:21:40;11.10;84.30
23671;DHT22;12012;51.998;7.614;2024-02-16T04:24:06;11.10;82.10
23671;DHT22;12012;51.998;7.614;2024-02-16T04:26:32;11.10;89.20
23671;DHT22;12012;51.998;7.614;2024-02-16T04:28:57;11.10;84.80
23671;DHT22;12012;51.998;7.614;2024-02-16T04:31:23;11.10;82.90
23671;DHT22;12012;51.998;7.614;2024-02-16T04:33:48;11.10;82.00
23671;DHT22;12012;51.998;7.614;2024-02-16T04:36:14;11.10;86.80
23671;DHT22;12012;51.998;7.614;2024-02-16T04:38:40;11.10;87.80
23671;DHT22;12012;51.998;7.614;2024-02-16T04:41:06;11.10;82.80
23671;DHT22;12012;51.998;7.614;2024-02-16T04:43:32;11.10;79.30
23671;DHT22;12012;51.998;7.614;2024-02-16T04:45:57;11.10;82.30
23671;DHT22;12012;51.998;7.614;2024-02-16T04:48:23;11.10;80.80
23671;DHT22;12012;51.998;7.614;2024-02-16T04:50:49;11.10;83.20
23671;DHT22;12012;51.998;7.614;2024-02-16T04:53:14;11.00;85.30
23671;DHT22;12012;51.998;7.614;2024-02-16T04:55:40;11.00;76.00
23671;DHT22;12012;51.998;7.614;2024-02-16T04:58:05;11.00;79.10
23671;DHT22;12012;51.998;7.614;2024-02-16T05:00:35;11.00;82.00
23671;DHT22;12012;51.998;7.614;2024-02-16T05:03:00;11.00;76.20
23671;DHT22;12012;51.998;7.614;2024-02-16T05:05:26;11.00;68.50
23671;DHT22;12012;51.998;7.614;2024-02-16T05:07:51;11.00;65.10
23671;DHT22;12012;51.998;7.614;2024-02-16T05:10:17;11.00;71.90
23671;DHT22;12012;51.998;7.614;2024-02-16T05:12:45;11.00;72.30
23671;DHT22;12012;51.998;7.614;2024-02-16T05:15:11;11.10;62.70
23671;DHT22;12012;51.998;7.614;2024-02-16T05:17:39;11.10;63.30
23671;DHT22;12012;51.998;7.614;2024-02-16T05:20:11;11.10;51.70
23671;DHT22;12012;51.998;7.614;2024-02-16T05:22:44;11.20;57.40
23671;DHT22;12012;51.998;7.614;2024-02-16T05:25:15;11.10;45.80
23671;DHT22;12012;51.998;7.614;2024-02-16T05:27:41;11.20;51.90
23671;DHT22;12012;51.998;7.614;2024-02-16T05:30:09;11.20;51.50
23671;DHT22;12012;51.998;7.614;2024-02-16T05:32:35;11.20;56.60
23671;DHT22;12012;51.998;7.614;2024-02-16T05:35:05;11.20;52.10
23671;DHT22;12012;51.998;7.614;2024-02-16T05:37:39;11.20;42.40
23671;DHT22;12012;51.998;7.614;2024-02-16T05:40:08;11.20;57.80
23671;DHT22;12012;51.998;7.614;2024-02-16T05:42:45;10.50;53.30
23671;DHT22;12012;51.998;7.614;2024-02-16T05:45:11;11.20;50.70
23671;DHT22;12012;51.998;7.614;2024-02-16T05:47:36;11.20;59.40
23671;DHT22;12012;51.998;7.614;2024-02-16T05:50:04;11.20;49.40
23671;DHT22;12012;51.998;7.614;2024-02-16T05:52:30;11.10;45.20
23671;DHT22;12012;51.998;7.614;2024-02-16T05:54:56;11.10;57.40
23671;DHT22;12012;51.998;7.614;2024-02-16T05:57:21;11.10;46.00
23671;DHT22;12012;51.998;7.614;2024-02-16T05:59:47;11.10;43.30
23671;DHT22;12012;51.998;7.614;2024-02-16T06:02:12;11.10;44.40
23671;DHT22;12012;51.998;7.614;2024-02-16T06:04:39;11.10;48.30
23671;DHT22;12012;51.998;7.614;2024-02-16T06:07:04;11.10;52.80
23671;DHT22;12012;51.998;7.614;2024-02-16T06:09:31;11.00;46.80
23671;DHT22;12012;51.998;7.614;2024-02-16T06:12:05;11.00;46.30
23671;DHT22;12012;51.998;7.614;2024-02-16T06:14:33;11.00;49.40
23671;DHT22;12012;51.998;7.614;2024-02-16T06:16:58;11.00;52.00
23671;DHT22;12012;51.998;7.614;2024-02-16T06:19:25;11.00;49.10
23671;DHT22;12012;51.998;7.614;2024-02-16T06:21:50;11.00;49.70
23671;DHT22;12012;51.998;7.614;2024-02-16T06:24:16;11.00;46.60
23671;DHT22;12012;51.998;7.614;2024-02-16T06:26:42;11.00;51.80
23671;DHT22;12012;51.998;7.614;2024-02-16T06:29:08;11.00;40.00
23671;DHT22;12012;51.998;7.614;2024-02-16T06:31:34;10.90;45.60
23671;DHT22;12012;51.998;7.614;2024-02-16T06:33:59;10.90;51.20
23671;DHT22;12012;51.998;7.614;2024-02-16T06:36:25;10.90;52.10
23671;DHT22;12012;51.998;7.614;2024-02-16T06:38:50;10.90;48.80
23671;DHT22;12012;51.998;7.614;2024-02-16T06:41:17;10.90;53.20
23671;DHT22;12012;51.998;7.614;2024-02-16T06:43:42;10.80;52.40
23671;DHT22;12012;51.998;7.614;2024-02-16T06:46:08;10.80;52.70
23671;DHT22;12012;51.998;7.614;2024-02-16T06:48:34;10.80;56.10
23671;DHT22;12012;51.998;7.614;2024-02-16T06:50:59;10.80;57.30
23671;DHT22;12012;51.998;7.614;2024-02-16T06:53:25;10.80;60.60
23671;DHT22;12012;51.998;7.614;2024-02-16T06:55:50;10.80;63.70
23671;DHT22;12012;51.998;7.614;2024-02-16T06:58:16;10.70;61.90
23671;DHT22;12012;51.998;7.614;2024-02-16T07:00:42;10.70;62.60
23671;DHT22;12012;51.998;7.614;2024-02-16T07:03:08;10.80;64.10
23671;DHT22;12012;51.998;7.614;2024-02-16T07:05:34;10.70;63.70
23671;DHT22;12012;51.998;7.614;2024-02-16T07:08:00;10.70;67.70
23671;DHT22;12012;51.998;7.614;2024-02-16T07:10:25;10.80;67.30
23671;DHT22;12012;51.998;7.614;2024-02-16T07:12:51;11.10;68.70
23671;DHT22;12012;51.998;7.614;2024-02-16T07:15:17;10.80;69.10
23671;DHT22;12012;51.998;7.614;2024-02-16T07:17:42;10.90;70.30
23671;DHT22;12012;51.998;7.614;2024-02-16T07:20:08;10.90;70.80
23671;DHT22;12012;51.998;7.614;2024-02-16T07:22:34;10.90;66.90
23671;DHT22;12012;51.998;7.614;2024-02-16T07:24:59;11.00;70.20
23671;DHT22;12012;51.998;7.614;2024-02-16T07:27:26;11.00;71.20
23671;DHT22;12012;51.998;7.614;2024-02-16T07:29:52;11.10;67.30
23671;DHT22;12012;51.998;7.614;2024-02-16T07:32:17;11.10;71.60
23671;DHT22;12012;51.998;7.614;2024-02-16T07:34:47;11.20;68.30
23671;DHT22;12012;51.998;7.614;2024-02-16T07:37:15;11.20;62.40
23671;DHT22;12012;51.998;7.614;2024-02-16T07:39:43;11.30;67.80
23671;DHT22;12012;51.998;7.614;2024-02-16T07:42:09;11.40;56.60
23671;DHT22;12012;51.998;7.614;2024-02-16T07:44:37;11.50;63.90
23671;DHT22;12012;51.998;7.614;2024-02-16T07:47:03;11.60;63.00
23671;DHT22;12012;51.998;7.614;2024-02-16T07:49:29;11.60;59.50
23671;DHT22;12012;51.998;7.614;2024-02-16T07:51:55;11.70;62.30
23671;DHT22;12012;51.998;7.614;2024-02-16T07:54:20;11.80;64.10
23671;DHT22;12012;51.998;7.614;2024-02-16T07:56:46;11.90;64.00
23671;DHT22;12012;51.998;7.614;2024-02-16T07:59:11;12.00;57.30
23671;DHT22;12012;51.998;7.614;2024-02-16T08:01:37;12.10;56.80
23671;DHT22;12012;51.998;7.614;2024-02-16T08:04:04;12.20;57.40
23671;DHT22;12012;51.998;7.614;2024-02-16T08:06:30;12.30;27.80
23671;DHT22;12012;51.998;7.614;2024-02-16T08:08:55;12.40;7.30
23671;DHT22;12012;51.998;7.614;2024-02-16T08:11:21;12.60;19.50
23671;DHT22;12012;51.998;7.614;2024-02-16T08:13:47;12.70;21.80
23671;DHT22;12012;51.998;7.614;2024-02-16T08:16:12;12.90;1.00
23671;DHT22;12012;51.998;7.614;2024-02-16T08:18:43;13.00;1.00
23671;DHT22;12012;51.998;7.614;2024-02-16T08:21:08;13.20;1.00
23671;DHT22;12012;51.998;7.614;2024-02-16T08:23:35;13.30;1.00
23671;DHT22;12012;51.998;7.614;2024-02-16T08:26:01;13.40;1.00
23671;DHT22;12012;51.998;7.614;2024-02-16T08:28:26;13.50;1.00
23671;DHT22;12012;51.998;7.614;2024-02-16T08:30:52;13.60;1.00
23671;DHT22;12012;51.998;7.614;2024-02-16T08:33:17;13.70;1.00
23671;DHT22;12012;51.998;7.614;2024-02-16T08:35:43;13.70;1.00
23671;DHT22;12012;51.998;7.614;2024-02-16T08:38:09;13.80;1.00
23671;DHT22;12012;51.998;7.614;2024-02-16T08:40:37;13.90;1.00
23671;DHT22;12012;51.998;7.614;2024-02-16T08:43:03;14.00;1.00
23671;DHT22;12012;51.998;7.614;2024-02-16T08:45:30;14.10;1.00
23671;DHT22;12012;51.998;7.614;2024-02-16T08:47:56;14.20;1.00
23671;DHT22;12012;51.998;7.614;2024-02-16T08:50:22;14.20;1.00
23671;DHT22;12012;51.998;7.614;2024-02-16T08:52:49;14.30;1.00
23671;DHT22;12012;51.998;7.614;2024-02-16T08:55:15;14.30;1.00
23671;DHT22;12012;51.998;7.614;2024-02-16T08:57:41;14.20;99.90
23671;DHT22;12012;51.998;7.614;2024-02-16T09:00:07;14.30;1.00
23671;DHT22;12012;51.998;7.614;2024-02-16T09:02:33;14.20;99.90
23671;DHT22;12012;51.998;7.614;2024-02-16T09:04:59;14.20;99.90
23671;DHT22;12012;51.998;7.614;2024-02-16T09:07:24;14.20;99.90
23671;DHT22;12012;51.998;7.614;2024-02-16T09:09:51;14.20;1.00
23671;DHT22;12012;51.998;7.614;2024-02-16T09:12:17;14.20;99.90
23671;DHT22;12012;51.998;7.614;2024-02-16T09:14:42;14.20;99.90
23671;DHT22;12012;51.998;7.614;2024-02-16T09:17:08;14.20;99.90
23671;DHT22;12012;51.998;7.614;2024-02-16T09:19:33;14.10;99.90
23671;DHT22;12012;51.998;7.614;2024-02-16T09:21:59;14.20;99.90
23671;DHT22;12012;51.998;7.614;2024-02-16T09:24:27;14.10;99.90
23671;DHT22;12012;51.998;7.614;2024-02-16T09:26:55;14.10;99.90
23671;DHT22;12012;51.998;7.614;2024-02-16T09:29:20;14.10;99.90
23671;DHT22;12012;51.998;7.614;2024-02-16T09:31:49;14.10;1.00
23671;DHT22;12012;51.998;7.614;2024-02-16T09:34:16;14.10;1.00
23671;DHT22;12012;51.998;7.614;2024-02-16T09:36:42;14.00;1.00
23671;DHT22;12012;51.998;7.614;2024-02-16T09:39:08;14.10;1.00
23671;DHT22;12012;51.998;7.614;2024-02-16T09:41:35;14.10;1.00
23671;DHT22;12012;51.998;7.614;2024-02-16T09:44:03;14.10;1.00
23671;DHT22;12012;51.998;7.614;2024-02-16T09:46:30;14.10;1.00
23671;DHT22;12012;51.998;7.614;2024-02-16T09:49:02;14.10;1.00
23671;DHT22;12012;51.998;7.614;2024-02-16T09:51:29;14.10;1.00
23671;DHT22;12012;51.998;7.614;2024-02-16T09:53:54;14.10;1.00
23671;DHT22;12012;51.998;7.614;2024-02-16T09:56:23;14.20;99.90
23671;DHT22;12012;51.998;7.614;2024-02-16T09:58:51;14.20;1.00
23671;DHT22;12012;51.998;7.614;2024-02-16T10:01:18;14.20;99.90
23671;DHT22;12012;51.998;7.614;2024-02-16T10:03:48;14.20;99.90
23671;DHT22;12012;51.998;7.614;2024-02-16T10:06:14;14.30;1.00
23671;DHT22;12012;51.998;7.614;2024-02-16T10:08:53;14.30;1.00
23671;DHT22;12012;51.998;7.614;2024-02-16T10:11:20;14.30;99.90
23671;DHT22;12012;51.998;7.614;2024-02-16T10:14:02;14.30;99.90
23671;DHT22;12012;51.998;7.614;2024-02-16T10:16:28;14.30;99.90
23671;DHT22;12012;51.998;7.614;2024-02-16T10:19:04;14.40;99.90
23671;DHT22;12012;51.998;7.614;2024-02-16T10:21:30;14.40;99.90
23671;DHT22;12012;51.998;7.614;2024-02-16T10:26:30;14.40;99.90
23671;DHT22;12012;51.998;7.614;2024-02-16T10:28:56;14.50;99.90
23671;DHT22;12012;51.998;7.614;2024-02-16T10:31:24;14.50;99.90
23671;DHT22;12012;51.998;7.614;2024-02-16T10:34:01;14.60;99.90
23671;DHT22;12012;51.998;7.614;2024-02-16T10:36:32;14.60;99.90
23671;DHT22;12012;51.998;7.614;2024-02-16T10:39:00;14.70;99.90
23671;DHT22;12012;51.998;7.614;2024-02-16T10:41:27;14.70;99.90
23671;DHT22;12012;51.998;7.614;2024-02-16T10:43:54;14.80;99.90
23671;DHT22;12012;51.998;7.614;2024-02-16T10:46:20;14.80;99.90
23671;DHT22;12012;51.998;7.614;2024-02-16T10:48:47;14.80;99.90
23671;DHT22;12012;51.998;7.614;2024-02-16T10:51:13;14.90;99.90
23671;DHT22;12012;51.998;7.614;2024-02-16T10:53:41;14.90;99.90
23671;DHT22;12012;51.998;7.614;2024-02-16T10:56:07;14.90;99.90
23671;DHT22;12012;51.998;7.614;2024-02-16T10:58:34;14.90;99.90
23671;DHT22;12012;51.998;7.614;2024-02-16T11:01:08;14.90;99.90
23671;DHT22;12012;51.998;7.614;2024-02-16T11:03:37;15.00;99.90
23671;DHT22;12012;51.998;7.614;2024-02-16T11:06:15;15.00;99.90
23671;DHT22;12012;51.998;7.614;2024-02-16T11:08:42;15.00;99.90
23671;DHT22;12012;51.998;7.614;2024-02-16T11:11:07;15.00;99.90
23671;DHT22;12012;51.998;7.614;2024-02-16T11:13:35;15.00;99.90
23671;DHT22;12012;51.998;7.614;2024-02-16T11:16:09;15.00;99.90
23671;DHT22;12012;51.998;7.614;2024-02-16T11:18:39;15.00;99.90
23671;DHT22;12012;51.998;7.614;2024-02-16T11:21:05;15.00;99.90
23671;DHT22;12012;51.998;7.614;2024-02-16T11:23:35;15.00;99.90
23671;DHT22;12012;51.998;7.614;2024-02-16T11:26:06;15.00;99.90
23671;DHT22;12012;51.998;7.614;2024-02-16T11:28:36;15.00;99.90
23671;DHT22;12012;51.998;7.614;2024-02-16T11:31:02;15.00;99.90
23671;DHT22;12012;51.998;7.614;2024-02-16T11:33:29;15.00;99.90
23671;DHT22;12012;51.998;7.614;2024-02-16T11:35:59;15.00;99.90
23671;DHT22;12012;51.998;7.614;2024-02-16T11:38:26;15.10;99.90
23671;DHT22;12012;51.998;7.614;2024-02-16T11:41:03;15.10;99.90
23671;DHT22;12012;51.998;7.614;2024-02-16T11:43:30;15.10;99.90
23671;DHT22;12012;51.998;7.614;2024-02-16T11:45:56;15.10;99.90
23671;DHT22;12012;51.998;7.614;2024-02-16T11:48:23;15.10;99.90
23671;DHT22;12012;51.998;7.614;2024-02-16T11:51:03;15.10;99.90
23671;DHT22;12012;51.998;7.614;2024-02-16T11:53:29;15.10;99.90
23671;DHT22;12012;51.998;7.614;2024-02-16T11:55:55;15.10;99.90
23671;DHT22;12012;51.998;7.614;2024-02-16T11:58:21;15.10;99.90
23671;DHT22;12012;51.998;7.614;2024-02-16T12:00:48;15.10;99.90
23671;DHT22;12012;51.998;7.614;2024-02-16T12:03:26;15.00;99.90
23671;DHT22;12012;51.998;7.614;2024-02-16T12:05:58;15.00;99.90
23671;DHT22;12012;51.998;7.614;2024-02-16T12:08:32;15.00;99.90
23671;DHT22;12012;51.998;7.614;2024-02-16T12:11:02;14.90;99.90
23671;DHT22;12012;51.998;7.614;2024-02-16T12:13:28;14.90;99.90
23671;DHT22;12012;51.998;7.614;2024-02-16T12:15:53;14.90;99.90
23671;DHT22;12012;51.998;7.614;2024-02-16T12:18:26;14.90;99.90
23671;DHT22;12012;51.998;7.614;2024-02-16T12:21:02;14.90;99.90
23671;DHT22;12012;51.998;7.614;2024-02-16T12:23:29;14.90;99.90
23671;DHT22;12012;51.998;7.614;2024-02-16T12:26:02;14.90;99.90
23671;DHT22;12012;51.998;7.614;2024-02-16T12:28:29;14.90;1.00
23671;DHT22;12012;51.998;7.614;2024-02-16T12:30:55;14.90;1.00
23671;DHT22;12012;51.998;7.614;2024-02-16T12:33:24;14.90;1.00
23671;DHT22;12012;51.998;7.614;2024-02-16T12:35:50;14.90;1.00
23671;DHT22;12012;51.998;7.614;2024-02-16T12:38:16;14.90;1.00
23671;DHT22;12012;51.998;7.614;2024-02-16T12:40:45;14.80;1.00
23671;DHT22;12012;51.998;7.614;2024-02-16T12:43:11;14.70;1.00
23671;DHT22;12012;51.998;7.614;2024-02-16T12:45:38;14.70;1.00
23671;DHT22;12012;51.998;7.614;2024-02-16T12:48:04;14.60;1.00
23671;DHT22;12012;51.998;7.614;2024-02-16T12:50:30;14.60;1.00
23671;DHT22;12012;51.998;7.614;2024-02-16T12:52:56;14.50;1.00
23671;DHT22;12012;51.998;7.614;2024-02-16T12:55:22;14.50;1.00
23671;DHT22;12012;51.998;7.614;2024-02-16T12:57:49;14.60;1.00
23671;DHT22;12012;51.998;7.614;2024-02-16T13:00:15;14.70;1.00
23671;DHT22;12012;51.998;7.614;2024-02-16T13:02:40;14.60;1.00
23671;DHT22;12012;51.998;7.614;2024-02-16T13:05:06;14.60;1.00
23671;DHT22;12012;51.998;7.614;2024-02-16T13:07:33;14.60;1.00
23671;DHT22;12012;51.998;7.614;2024-02-16T13:09:59;14.50;1.00
23671;DHT22;12012;51.998;7.614;2024-02-16T13:12:24;14.40;1.00
23671;DHT22;12012;51.998;7.614;2024-02-16T13:14:50;14.40;1.00
23671;DHT22;12012;51.998;7.614;2024-02-16T13:17:16;14.40;1.00
23671;DHT22;12012;51.998;7.614;2024-02-16T13:19:42;14.30;1.00
23671;DHT22;12012;51.998;7.614;2024-02-16T13:22:07;14.20;1.00
23671;DHT22;12012;51.998;7.614;2024-02-16T13:24:42;14.20;4.20
23671;DHT22;12012;51.998;7.614;2024-02-16T13:27:08;14.10;5.60
23671;DHT22;12012;51.998;7.614;2024-02-16T13:29:34;14.10;11.20
23671;DHT22;12012;51.998;7.614;2024-02-16T13:32:00;14.00;16.30
23671;DHT22;12012;51.998;7.614;2024-02-16T13:34:26;14.00;22.50
23671;DHT22;12012;51.998;7.614;2024-02-16T13:36:52;13.90;30.60
23671;DHT22;12012;51.998;7.614;2024-02-16T13:39:18;13.90;30.80
23671;DHT22;12012;51.998;7.614;2024-02-16T13:41:45;13.90;34.00
23671;DHT22;12012;51.998;7.614;2024-02-16T13:44:12;13.80;37.80
23671;DHT22;12012;51.998;7.614;2024-02-16T13:46:38;13.80;45.50
23671;DHT22;12012;51.998;7.614;2024-02-16T13:49:07;13.70;50.90
23671;DHT22;12012;51.998;7.614;2024-02-16T13:51:32;13.70;62.80
23671;DHT22;12012;51.998;7.614;2024-02-16T13:53:58;13.60;70.20
23671;DHT22;12012;51.998;7.614;2024-02-16T13:56:24;13.50;80.60
23671;DHT22;12012;51.998;7.614;2024-02-16T13:58:49;13.40;92.70
23671;DHT22;12012;51.998;7.614;2024-02-16T14:01:15;13.30;96.20
23671;DHT22;12012;51.998;7.614;2024-02-16T14:03:40;13.20;97.30
23671;DHT22;12012;51.998;7.614;2024-02-16T14:06:06;13.10;99.90
23671;DHT22;12012;51.998;7.614;2024-02-16T14:08:35;13.10;99.90
23671;DHT22;12012;51.998;7.614;2024-02-16T14:11:01;13.00;99.90
23671;DHT22;12012;51.998;7.614;2024-02-16T14:13:27;13.00;99.90
23671;DHT22;12012;51.998;7.614;2024-02-16T14:15:53;12.90;99.90
23671;DHT22;12012;51.998;7.614;2024-02-16T14:18:18;12.90;99.90
23671;DHT22;12012;51.998;7.614;2024-02-16T14:20:44;12.80;99.90
23671;DHT22;12012;51.998;7.614;2024-02-16T14:23:09;12.80;99.90
23671;DHT22;12012;51.998;7.614;2024-02-16T14:25:36;12.80;99.90
23671;DHT22;12012;51.998;7.614;2024-02-16T14:28:03;12.80;99.90
23671;DHT22;12012;51.998;7.614;2024-02-16T14:30:29;12.80;99.90
23671;DHT22;12012;51.998;7.614;2024-02-16T14:32:55;12.80;99.90
23671;DHT22;12012;51.998;7.614;2024-02-16T14:35:20;12.70;99.90
23671;DHT22;12012;51.998;7.614;2024-02-16T14:37:47;12.70;99.90
23671;DHT22;12012;51.998;7.614;2024-02-16T14:40:13;12.70;99.90
23671;DHT22;12012;51.998;7.614;2024-02-16T14:42:39;12.70;99.90
23671;DHT22;12012;51.998;7.614;2024-02-16T14:45:05;12.60;99.90
23671;DHT22;12012;51.998;7.614;2024-02-16T14:47:35;12.60;99.90
23671;DHT22;12012;51.998;7.614;2024-02-16T14:50:01;12.60;99.90
23671;DHT22;12012;51.998;7.614;2024-02-16T14:52:29;12.60;99.90
23671;DHT22;12012;51.998;7.614;2024-02-16T14:54:54;12.60;99.90
23671;DHT22;12012;51.998;7.614;2024-02-16T14:57:22;12.60;99.90
23671;DHT22;12012;51.998;7.614;2024-02-16T14:59:50;12.60;99.90
23671;DHT22;12012;51.998;7.614;2024-02-16T15:02:21;12.60;99.90
23671;DHT22;12012;51.998;7.614;2024-02-16T15:04:47;12.60;99.90
23671;DHT22;12012;51.998;7.614;2024-02-16T15:07:13;12.60;99.90
23671;DHT22;12012;51.998;7.614;2024-02-16T15:09:40;12.50;99.90
23671;DHT22;12012;51.998;7.614;2024-02-16T15:12:06;12.50;99.90
23671;DHT22;12012;51.998;7.614;2024-02-16T15:14:32;12.50;99.90
23671;DHT22;12012;51.998;7.614;2024-02-16T15:16:57;12.50;99.90
23671;DHT22;12012;51.998;7.614;2024-02-16T15:19:23;12.50;99.90
23671;DHT22;12012;51.998;7.614;2024-02-16T15:21:48;12.60;99.90
23671;DHT22;12012;51.998;7.614;2024-02-16T15:24:14;12.60;99.90
23671;DHT22;12012;51.998;7.614;2024-02-16T15:26:40;12.60;99.90
23671;DHT22;12012;51.998;7.614;2024-02-16T15:29:05;12.60;99.90
23671;DHT22;12012;51.998;7.614;2024-02-16T15:31:32;12.60;99.90